sensor_id;sensor_type;location;lat;lon;timestamp;temperature;humidity
336;DHT22;156;48.738;9.228;2023-04-23T00:01:17;13.60;1.00
336;DHT22;156;48.738;9.228;2023-04-23T00:03:45;13.50;1.00
336;DHT22;156;48.738;9.228;2023-04-23T00:06:14;13.50;1.00
336;DHT22;156;48.738;9.228;2023-04-23T00:08:46;13.50;1.00
336;DHT22;156;48.738;9.228;2023-04-23T00:11:14;13.40;1.00
336;DHT22;156;48.738;9.228;2023-04-23T00:13:44;13.40;1.00
336;DHT22;156;48.738;9.228;2023-04-23T00:16:13;13.40;1.00
336;DHT22;156;48.738;9.228;2023-04-23T00:18:40;13.40;1.00
336;DHT22;156;48.738;9.228;2023-04-23T00:21:07;13.30;1.00
336;DHT22;156;48.738;9.228;2023-04-23T00:23:34;13.30;1.00
336;DHT22;156;48.738;9.228;2023-04-23T00:26:02;13.30;1.00
336;DHT22;156;48.738;9.228;2023-04-23T00:28:29;13.30;1.00
336;DHT22;156;48.738;9.228;2023-04-23T00:30:56;13.30;1.00
336;DHT22;156;48.738;9.228;2023-04-23T00:33:23;13.30;1.00
336;DHT22;156;48.738;9.228;2023-04-23T00:35:50;13.30;1.00
336;DHT22;156;48.738;9.228;2023-04-23T00:38:17;13.30;1.00
336;DHT22;156;48.738;9.228;2023-04-23T00:40:45;13.20;1.00
336;DHT22;156;48.738;9.228;2023-04-23T00:43:13;13.20;1.00
336;DHT22;156;48.738;9.228;2023-04-23T00:45:42;13.20;1.00
336;DHT22;156;48.738;9.228;2023-04-23T00:48:10;13.20;1.00
336;DHT22;156;48.738;9.228;2023-04-23T00:50:38;13.10;1.00
336;DHT22;156;48.738;9.228;2023-04-23T00:53:05;13.20;1.00
336;DHT22;156;48.738;9.228;2023-04-23T00:55:33;13.20;1.00
336;DHT22;156;48.738;9.228;2023-04-23T00:58:00;13.10;1.00
336;DHT22;156;48.738;9.228;2023-04-23T01:00:28;13.10;1.00
336;DHT22;156;48.738;9.228;2023-04-23T01:02:56;13.10;1.00
336;DHT22;156;48.738;9.228;2023-04-23T01:05:23;13.00;1.00
336;DHT22;156;48.738;9.228;2023-04-23T01:07:51;12.90;1.00
336;DHT22;156;48.738;9.228;2023-04-23T01:10:23;12.80;1.00
336;DHT22;156;48.738;9.228;2023-04-23T01:12:51;12.70;1.00
336;DHT22;156;48.738;9.228;2023-04-23T01:15:18;12.70;1.00
336;DHT22;156;48.738;9.228;2023-04-23T01:17:46;12.80;1.00
336;DHT22;156;48.738;9.228;2023-04-23T01:20:13;12.80;1.00
336;DHT22;156;48.738;9.228;2023-04-23T01:22:42;12.80;1.00
336;DHT22;156;48.738;9.228;2023-04-23T01:25:13;12.70;1.00
336;DHT22;156;48.738;9.228;2023-04-23T01:27:40;12.70;1.00
336;DHT22;156;48.738;9.228;2023-04-23T01:30:08;12.50;1.00
336;DHT22;156;48.738;9.228;2023-04-23T01:32:36;12.60;1.00
336;DHT22;156;48.738;9.228;2023-04-23T01:35:03;12.60;1.00
336;DHT22;156;48.738;9.228;2023-04-23T01:37:33;12.60;1.00
336;DHT22;156;48.738;9.228;2023-04-23T01:40:02;12.50;1.00
336;DHT22;156;48.738;9.228;2023-04-23T01:42:32;12.50;1.00
336;DHT22;156;48.738;9.228;2023-04-23T01:45:01;12.50;1.00
336;DHT22;156;48.738;9.228;2023-04-23T01:47:28;12.60;1.00
336;DHT22;156;48.738;9.228;2023-04-23T01:49:58;12.60;1.00
336;DHT22;156;48.738;9.228;2023-04-23T01:52:24;12.60;1.00
336;DHT22;156;48.738;9.228;2023-04-23T01:54:51;12.60;1.00
336;DHT22;156;48.738;9.228;2023-04-23T01:57:20;12.60;1.00
336;DHT22;156;48.738;9.228;2023-04-23T01:59:51;12.50;1.00
336;DHT22;156;48.738;9.228;2023-04-23T02:02:17;12.50;1.00
336;DHT22;156;48.738;9.228;2023-04-23T02:04:46;12.60;1.00
336;DHT22;156;48.738;9.228;2023-04-23T02:07:14;12.70;1.00
336;DHT22;156;48.738;9.228;2023-04-23T02:09:41;12.60;1.00
336;DHT22;156;48.738;9.228;2023-04-23T02:12:08;12.60;1.00
336;DHT22;156;48.738;9.228;2023-04-23T02:14:36;12.50;1.00
336;DHT22;156;48.738;9.228;2023-04-23T02:17:03;12.50;1.00
336;DHT22;156;48.738;9.228;2023-04-23T02:19:32;12.50;1.00
336;DHT22;156;48.738;9.228;2023-04-23T02:22:02;12.60;1.00
336;DHT22;156;48.738;9.228;2023-04-23T02:24:28;12.60;1.00
336;DHT22;156;48.738;9.228;2023-04-23T02:26:55;12.60;1.00
336;DHT22;156;48.738;9.228;2023-04-23T02:29:23;12.50;1.00
336;DHT22;156;48.738;9.228;2023-04-23T02:31:51;12.60;2.80
336;DHT22;156;48.738;9.228;2023-04-23T02:34:21;12.60;3.30
336;DHT22;156;48.738;9.228;2023-04-23T02:36:47;12.50;4.30
336;DHT22;156;48.738;9.228;2023-04-23T02:39:15;12.50;6.90
336;DHT22;156;48.738;9.228;2023-04-23T02:41:42;12.30;11.30
336;DHT22;156;48.738;9.228;2023-04-23T02:44:09;12.30;16.80
336;DHT22;156;48.738;9.228;2023-04-23T02:46:36;12.30;18.40
336;DHT22;156;48.738;9.228;2023-04-23T02:49:05;12.20;22.80
336;DHT22;156;48.738;9.228;2023-04-23T02:51:32;12.30;16.00
336;DHT22;156;48.738;9.228;2023-04-23T02:54:01;12.30;15.20
336;DHT22;156;48.738;9.228;2023-04-23T02:56:28;12.30;15.30
336;DHT22;156;48.738;9.228;2023-04-23T02:58:55;12.20;16.70
336;DHT22;156;48.738;9.228;2023-04-23T03:01:22;12.20;17.80
336;DHT22;156;48.738;9.228;2023-04-23T03:03:49;12.20;23.70
336;DHT22;156;48.738;9.228;2023-04-23T03:06:20;12.20;27.00
336;DHT22;156;48.738;9.228;2023-04-23T03:08:47;12.20;27.90
336;DHT22;156;48.738;9.228;2023-04-23T03:11:14;12.10;30.30
336;DHT22;156;48.738;9.228;2023-04-23T03:13:41;12.10;32.40
336;DHT22;156;48.738;9.228;2023-04-23T03:16:08;12.10;37.20
336;DHT22;156;48.738;9.228;2023-04-23T03:18:36;12.10;36.10
336;DHT22;156;48.738;9.228;2023-04-23T03:21:03;12.10;35.10
336;DHT22;156;48.738;9.228;2023-04-23T03:23:31;11.90;40.30
336;DHT22;156;48.738;9.228;2023-04-23T03:25:58;11.90;46.30
336;DHT22;156;48.738;9.228;2023-04-23T03:28:29;11.90;54.40
336;DHT22;156;48.738;9.228;2023-04-23T03:30:55;11.70;55.10
336;DHT22;156;48.738;9.228;2023-04-23T03:33:27;11.90;40.90
336;DHT22;156;48.738;9.228;2023-04-23T03:35:54;11.90;48.80
336;DHT22;156;48.738;9.228;2023-04-23T03:38:21;11.80;47.20
336;DHT22;156;48.738;9.228;2023-04-23T03:40:49;11.70;56.10
336;DHT22;156;48.738;9.228;2023-04-23T03:43:16;11.70;60.60
336;DHT22;156;48.738;9.228;2023-04-23T03:45:43;11.60;66.00
336;DHT22;156;48.738;9.228;2023-04-23T03:48:10;11.60;70.60
336;DHT22;156;48.738;9.228;2023-04-23T03:50:37;11.50;78.50
336;DHT22;156;48.738;9.228;2023-04-23T03:53:05;11.60;71.50
336;DHT22;156;48.738;9.228;2023-04-23T03:55:32;11.60;72.40
336;DHT22;156;48.738;9.228;2023-04-23T03:58:01;11.60;68.50
336;DHT22;156;48.738;9.228;2023-04-23T04:00:28;11.60;67.80
336;DHT22;156;48.738;9.228;2023-04-23T04:02:55;11.60;71.50
336;DHT22;156;48.738;9.228;2023-04-23T04:05:24;11.50;76.60
336;DHT22;156;48.738;9.228;2023-04-23T04:07:51;11.50;79.60
336;DHT22;156;48.738;9.228;2023-04-23T04:10:20;11.50;84.70
336;DHT22;156;48.738;9.228;2023-04-23T04:12:47;11.50;87.80
336;DHT22;156;48.738;9.228;2023-04-23T04:15:15;11.60;86.10
336;DHT22;156;48.738;9.228;2023-04-23T04:17:44;11.50;81.50
336;DHT22;156;48.738;9.228;2023-04-23T04:20:11;11.60;81.70
336;DHT22;156;48.738;9.228;2023-04-23T04:22:39;11.50;85.10
336;DHT22;156;48.738;9.228;2023-04-23T04:25:06;11.40;89.50
336;DHT22;156;48.738;9.228;2023-04-23T04:27:34;11.30;94.60
336;DHT22;156;48.738;9.228;2023-04-23T04:30:02;11.30;97.30
336;DHT22;156;48.738;9.228;2023-04-23T04:32:31;11.40;97.00
336;DHT22;156;48.738;9.228;2023-04-23T04:34:58;11.30;98.20
336;DHT22;156;48.738;9.228;2023-04-23T04:37:27;11.30;98.00
336;DHT22;156;48.738;9.228;2023-04-23T04:39:54;11.30;98.30
336;DHT22;156;48.738;9.228;2023-04-23T04:42:21;11.30;99.90
336;DHT22;156;48.738;9.228;2023-04-23T04:44:50;11.30;98.60
336;DHT22;156;48.738;9.228;2023-04-23T04:47:17;11.30;98.70
336;DHT22;156;48.738;9.228;2023-04-23T04:49:46;11.20;99.90
336;DHT22;156;48.738;9.228;2023-04-23T04:52:13;11.30;99.90
336;DHT22;156;48.738;9.228;2023-04-23T04:54:40;11.30;99.90
336;DHT22;156;48.738;9.228;2023-04-23T04:57:07;11.30;99.50
336;DHT22;156;48.738;9.228;2023-04-23T04:59:34;11.30;98.90
336;DHT22;156;48.738;9.228;2023-04-23T05:02:01;11.40;97.30
336;DHT22;156;48.738;9.228;2023-04-23T05:04:28;11.30;98.00
336;DHT22;156;48.738;9.228;2023-04-23T05:06:56;11.40;98.00
336;DHT22;156;48.738;9.228;2023-04-23T05:09:24;11.40;97.20
336;DHT22;156;48.738;9.228;2023-04-23T05:11:51;11.50;95.40
336;DHT22;156;48.738;9.228;2023-04-23T05:14:18;11.60;93.10
336;DHT22;156;48.738;9.228;2023-04-23T05:16:45;11.60;90.30
336;DHT22;156;48.738;9.228;2023-04-23T05:19:12;11.60;89.90
336;DHT22;156;48.738;9.228;2023-04-23T05:21:39;11.70;85.50
336;DHT22;156;48.738;9.228;2023-04-23T05:24:07;11.80;79.90
336;DHT22;156;48.738;9.228;2023-04-23T05:26:34;11.90;71.00
336;DHT22;156;48.738;9.228;2023-04-23T05:29:01;11.90;65.50
336;DHT22;156;48.738;9.228;2023-04-23T05:31:28;11.90;65.20
336;DHT22;156;48.738;9.228;2023-04-23T05:33:55;12.00;61.70
336;DHT22;156;48.738;9.228;2023-04-23T05:36:22;12.00;56.00
336;DHT22;156;48.738;9.228;2023-04-23T05:38:49;12.00;50.00
336;DHT22;156;48.738;9.228;2023-04-23T05:41:17;12.10;48.80
336;DHT22;156;48.738;9.228;2023-04-23T05:43:44;12.10;46.60
336;DHT22;156;48.738;9.228;2023-04-23T05:46:11;11.90;49.80
336;DHT22;156;48.738;9.228;2023-04-23T05:48:38;12.00;51.00
336;DHT22;156;48.738;9.228;2023-04-23T05:51:05;12.00;46.10
336;DHT22;156;48.738;9.228;2023-04-23T05:53:32;12.00;39.80
336;DHT22;156;48.738;9.228;2023-04-23T05:56:00;12.10;36.40
336;DHT22;156;48.738;9.228;2023-04-23T05:58:29;12.10;34.00
336;DHT22;156;48.738;9.228;2023-04-23T06:00:56;12.10;32.70
336;DHT22;156;48.738;9.228;2023-04-23T06:03:23;12.10;31.30
336;DHT22;156;48.738;9.228;2023-04-23T06:05:51;12.10;34.60
336;DHT22;156;48.738;9.228;2023-04-23T06:08:18;12.10;30.80
336;DHT22;156;48.738;9.228;2023-04-23T06:10:45;12.00;29.50
336;DHT22;156;48.738;9.228;2023-04-23T06:13:12;12.10;30.40
336;DHT22;156;48.738;9.228;2023-04-23T06:15:42;12.10;27.40
336;DHT22;156;48.738;9.228;2023-04-23T06:18:09;12.20;28.30
336;DHT22;156;48.738;9.228;2023-04-23T06:20:36;12.20;22.60
336;DHT22;156;48.738;9.228;2023-04-23T06:23:05;12.10;27.00
336;DHT22;156;48.738;9.228;2023-04-23T06:25:32;12.20;19.80
336;DHT22;156;48.738;9.228;2023-04-23T06:27:59;12.10;15.10
336;DHT22;156;48.738;9.228;2023-04-23T06:30:26;12.00;15.00
336;DHT22;156;48.738;9.228;2023-04-23T06:32:54;11.90;15.50
336;DHT22;156;48.738;9.228;2023-04-23T06:35:24;11.90;15.30
336;DHT22;156;48.738;9.228;2023-04-23T06:37:53;11.90;15.10
336;DHT22;156;48.738;9.228;2023-04-23T06:40:20;11.90;13.20
336;DHT22;156;48.738;9.228;2023-04-23T06:42:47;12.00;11.00
336;DHT22;156;48.738;9.228;2023-04-23T06:45:15;12.10;14.90
336;DHT22;156;48.738;9.228;2023-04-23T06:47:45;12.10;5.80
336;DHT22;156;48.738;9.228;2023-04-23T06:50:15;12.20;7.30
336;DHT22;156;48.738;9.228;2023-04-23T06:52:42;12.30;3.10
336;DHT22;156;48.738;9.228;2023-04-23T06:55:09;12.30;2.50
336;DHT22;156;48.738;9.228;2023-04-23T06:57:36;12.40;1.00
336;DHT22;156;48.738;9.228;2023-04-23T07:00:04;12.40;1.00
336;DHT22;156;48.738;9.228;2023-04-23T07:02:32;12.40;1.00
336;DHT22;156;48.738;9.228;2023-04-23T07:04:59;12.60;1.00
336;DHT22;156;48.738;9.228;2023-04-23T07:07:30;12.70;1.00
336;DHT22;156;48.738;9.228;2023-04-23T07:10:01;12.70;1.00
336;DHT22;156;48.738;9.228;2023-04-23T07:12:29;12.80;1.00
336;DHT22;156;48.738;9.228;2023-04-23T07:14:56;13.00;1.00
336;DHT22;156;48.738;9.228;2023-04-23T07:17:23;13.10;1.00
336;DHT22;156;48.738;9.228;2023-04-23T07:19:50;13.30;1.00
336;DHT22;156;48.738;9.228;2023-04-23T07:22:17;13.50;1.00
336;DHT22;156;48.738;9.228;2023-04-23T07:24:45;13.40;1.00
336;DHT22;156;48.738;9.228;2023-04-23T07:27:12;13.00;1.00
336;DHT22;156;48.738;9.228;2023-04-23T07:29:39;13.10;1.00
336;DHT22;156;48.738;9.228;2023-04-23T07:32:06;13.30;1.00
336;DHT22;156;48.738;9.228;2023-04-23T07:34:33;13.20;1.00
336;DHT22;156;48.738;9.228;2023-04-23T07:37:00;13.30;1.00
336;DHT22;156;48.738;9.228;2023-04-23T07:39:27;13.20;1.00
336;DHT22;156;48.738;9.228;2023-04-23T07:41:56;13.10;1.00
336;DHT22;156;48.738;9.228;2023-04-23T07:44:23;13.30;1.00
336;DHT22;156;48.738;9.228;2023-04-23T07:46:50;13.60;1.00
336;DHT22;156;48.738;9.228;2023-04-23T07:49:17;13.70;1.00
336;DHT22;156;48.738;9.228;2023-04-23T07:51:44;13.70;1.00
336;DHT22;156;48.738;9.228;2023-04-23T07:54:13;13.70;1.00
336;DHT22;156;48.738;9.228;2023-04-23T07:56:42;13.90;1.00
336;DHT22;156;48.738;9.228;2023-04-23T07:59:10;14.00;1.00
336;DHT22;156;48.738;9.228;2023-04-23T08:01:37;13.70;1.00
336;DHT22;156;48.738;9.228;2023-04-23T08:04:06;13.60;1.00
336;DHT22;156;48.738;9.228;2023-04-23T08:06:33;13.50;1.00
336;DHT22;156;48.738;9.228;2023-04-23T08:09:00;13.70;1.00
336;DHT22;156;48.738;9.228;2023-04-23T08:11:31;13.90;1.00
336;DHT22;156;48.738;9.228;2023-04-23T08:13:58;14.10;1.00
336;DHT22;156;48.738;9.228;2023-04-23T08:16:27;14.40;1.00
336;DHT22;156;48.738;9.228;2023-04-23T08:18:54;14.60;1.00
336;DHT22;156;48.738;9.228;2023-04-23T08:21:22;14.60;1.00
336;DHT22;156;48.738;9.228;2023-04-23T08:23:51;14.50;1.00
336;DHT22;156;48.738;9.228;2023-04-23T08:26:20;14.50;1.00
336;DHT22;156;48.738;9.228;2023-04-23T08:28:48;14.60;1.00
336;DHT22;156;48.738;9.228;2023-04-23T08:31:15;14.80;1.00
336;DHT22;156;48.738;9.228;2023-04-23T08:33:49;14.90;1.00
336;DHT22;156;48.738;9.228;2023-04-23T08:36:16;15.10;1.00
336;DHT22;156;48.738;9.228;2023-04-23T08:38:43;15.10;1.00
336;DHT22;156;48.738;9.228;2023-04-23T08:41:14;15.30;1.00
336;DHT22;156;48.738;9.228;2023-04-23T08:43:46;15.40;1.00
336;DHT22;156;48.738;9.228;2023-04-23T08:46:18;15.50;1.00
336;DHT22;156;48.738;9.228;2023-04-23T08:48:45;15.40;1.00
336;DHT22;156;48.738;9.228;2023-04-23T08:51:17;15.40;1.00
336;DHT22;156;48.738;9.228;2023-04-23T08:53:50;15.10;1.00
336;DHT22;156;48.738;9.228;2023-04-23T08:56:18;15.00;1.00
336;DHT22;156;48.738;9.228;2023-04-23T08:58:48;15.10;1.00
336;DHT22;156;48.738;9.228;2023-04-23T09:01:16;15.10;1.00
336;DHT22;156;48.738;9.228;2023-04-23T09:03:44;15.10;1.00
336;DHT22;156;48.738;9.228;2023-04-23T09:06:11;15.30;1.00
336;DHT22;156;48.738;9.228;2023-04-23T09:08:40;15.50;1.00
336;DHT22;156;48.738;9.228;2023-04-23T09:11:07;15.50;1.00
336;DHT22;156;48.738;9.228;2023-04-23T09:13:34;15.50;1.00
336;DHT22;156;48.738;9.228;2023-04-23T09:16:02;15.60;1.00
336;DHT22;156;48.738;9.228;2023-04-23T09:18:30;15.70;1.00
336;DHT22;156;48.738;9.228;2023-04-23T09:20:57;15.80;1.00
336;DHT22;156;48.738;9.228;2023-04-23T09:23:25;15.90;1.00
336;DHT22;156;48.738;9.228;2023-04-23T09:25:57;16.00;1.00
336;DHT22;156;48.738;9.228;2023-04-23T09:28:33;16.10;1.00
336;DHT22;156;48.738;9.228;2023-04-23T09:31:03;16.20;1.00
336;DHT22;156;48.738;9.228;2023-04-23T09:33:33;16.20;1.00
336;DHT22;156;48.738;9.228;2023-04-23T09:36:04;16.40;1.00
336;DHT22;156;48.738;9.228;2023-04-23T09:38:33;16.50;1.00
336;DHT22;156;48.738;9.228;2023-04-23T09:41:19;16.80;1.00
336;DHT22;156;48.738;9.228;2023-04-23T09:43:51;16.80;1.00
336;DHT22;156;48.738;9.228;2023-04-23T09:46:18;16.50;1.00
336;DHT22;156;48.738;9.228;2023-04-23T09:48:45;16.50;1.00
336;DHT22;156;48.738;9.228;2023-04-23T09:51:13;16.60;1.00
336;DHT22;156;48.738;9.228;2023-04-23T09:53:41;16.80;1.00
336;DHT22;156;48.738;9.228;2023-04-23T09:56:10;16.90;1.00
336;DHT22;156;48.738;9.228;2023-04-23T09:58:40;17.00;1.00
336;DHT22;156;48.738;9.228;2023-04-23T10:01:10;16.90;1.00
336;DHT22;156;48.738;9.228;2023-04-23T10:03:41;16.80;1.00
336;DHT22;156;48.738;9.228;2023-04-23T10:06:12;17.10;1.00
336;DHT22;156;48.738;9.228;2023-04-23T10:08:40;17.30;1.00
336;DHT22;156;48.738;9.228;2023-04-23T10:11:07;17.40;1.00
336;DHT22;156;48.738;9.228;2023-04-23T10:13:36;17.40;1.00
336;DHT22;156;48.738;9.228;2023-04-23T10:16:03;17.50;1.00
336;DHT22;156;48.738;9.228;2023-04-23T10:18:31;17.40;1.00
336;DHT22;156;48.738;9.228;2023-04-23T10:21:00;17.50;1.00
336;DHT22;156;48.738;9.228;2023-04-23T10:23:28;17.60;1.00
336;DHT22;156;48.738;9.228;2023-04-23T10:25:58;17.50;1.00
336;DHT22;156;48.738;9.228;2023-04-23T10:28:28;17.50;1.00
336;DHT22;156;48.738;9.228;2023-04-23T10:30:58;17.50;1.00
336;DHT22;156;48.738;9.228;2023-04-23T10:33:27;17.40;1.00
336;DHT22;156;48.738;9.228;2023-04-23T10:35:57;17.70;1.00
336;DHT22;156;48.738;9.228;2023-04-23T10:38:28;17.60;1.00
336;DHT22;156;48.738;9.228;2023-04-23T10:40:58;17.70;1.00
336;DHT22;156;48.738;9.228;2023-04-23T10:43:27;17.80;1.00
336;DHT22;156;48.738;9.228;2023-04-23T10:45:53;18.10;1.00
336;DHT22;156;48.738;9.228;2023-04-23T10:48:22;18.10;1.00
336;DHT22;156;48.738;9.228;2023-04-23T10:50:56;18.10;1.00
336;DHT22;156;48.738;9.228;2023-04-23T10:53:24;18.30;1.00
336;DHT22;156;48.738;9.228;2023-04-23T10:56:04;18.10;1.00
336;DHT22;156;48.738;9.228;2023-04-23T10:58:46;18.10;1.00
336;DHT22;156;48.738;9.228;2023-04-23T11:01:14;18.20;1.00
336;DHT22;156;48.738;9.228;2023-04-23T11:03:43;17.90;1.00
336;DHT22;156;48.738;9.228;2023-04-23T11:06:12;18.30;1.00
336;DHT22;156;48.738;9.228;2023-04-23T11:08:50;18.50;1.00
336;DHT22;156;48.738;9.228;2023-04-23T11:11:18;18.20;1.00
336;DHT22;156;48.738;9.228;2023-04-23T11:13:51;18.30;1.00
336;DHT22;156;48.738;9.228;2023-04-23T11:16:20;18.40;1.00
336;DHT22;156;48.738;9.228;2023-04-23T11:19:00;18.30;1.00
336;DHT22;156;48.738;9.228;2023-04-23T11:21:56;18.50;1.00
336;DHT22;156;48.738;9.228;2023-04-23T11:24:25;18.60;1.00
336;DHT22;156;48.738;9.228;2023-04-23T11:26:55;18.50;1.00
336;DHT22;156;48.738;9.228;2023-04-23T11:29:24;18.50;1.00
336;DHT22;156;48.738;9.228;2023-04-23T11:31:52;18.50;1.00
336;DHT22;156;48.738;9.228;2023-04-23T11:34:21;18.50;1.00
336;DHT22;156;48.738;9.228;2023-04-23T11:36:51;18.50;1.00
336;DHT22;156;48.738;9.228;2023-04-23T11:39:18;18.60;1.00
336;DHT22;156;48.738;9.228;2023-04-23T11:41:45;18.80;1.00
336;DHT22;156;48.738;9.228;2023-04-23T11:44:13;18.60;1.00
336;DHT22;156;48.738;9.228;2023-04-23T11:46:40;18.70;1.00
336;DHT22;156;48.738;9.228;2023-04-23T11:49:07;18.90;1.00
336;DHT22;156;48.738;9.228;2023-04-23T11:51:40;19.20;1.00
336;DHT22;156;48.738;9.228;2023-04-23T11:54:07;19.20;1.00
336;DHT22;156;48.738;9.228;2023-04-23T11:56:35;19.20;1.00
336;DHT22;156;48.738;9.228;2023-04-23T11:59:03;19.40;1.00
336;DHT22;156;48.738;9.228;2023-04-23T12:01:43;19.40;1.00
336;DHT22;156;48.738;9.228;2023-04-23T12:04:14;19.40;1.00
336;DHT22;156;48.738;9.228;2023-04-23T12:06:53;19.50;1.00
336;DHT22;156;48.738;9.228;2023-04-23T12:09:22;19.50;1.00
336;DHT22;156;48.738;9.228;2023-04-23T12:11:50;19.70;1.00
336;DHT22;156;48.738;9.228;2023-04-23T12:14:18;19.60;1.00
336;DHT22;156;48.738;9.228;2023-04-23T12:16:48;19.60;1.00
336;DHT22;156;48.738;9.228;2023-04-23T12:19:19;19.80;1.00
336;DHT22;156;48.738;9.228;2023-04-23T12:21:49;19.70;1.00
336;DHT22;156;48.738;9.228;2023-04-23T12:24:19;19.60;1.00
336;DHT22;156;48.738;9.228;2023-04-23T12:26:49;19.00;1.00
336;DHT22;156;48.738;9.228;2023-04-23T12:29:19;18.80;1.00
336;DHT22;156;48.738;9.228;2023-04-23T12:31:47;19.00;1.00
336;DHT22;156;48.738;9.228;2023-04-23T12:34:14;19.30;1.00
336;DHT22;156;48.738;9.228;2023-04-23T12:36:45;19.50;1.00
336;DHT22;156;48.738;9.228;2023-04-23T12:39:22;19.80;1.00
336;DHT22;156;48.738;9.228;2023-04-23T12:41:54;20.10;1.00
336;DHT22;156;48.738;9.228;2023-04-23T12:44:22;20.40;1.00
336;DHT22;156;48.738;9.228;2023-04-23T12:46:53;20.20;1.00
336;DHT22;156;48.738;9.228;2023-04-23T12:49:23;20.60;1.00
336;DHT22;156;48.738;9.228;2023-04-23T12:51:51;21.00;1.00
336;DHT22;156;48.738;9.228;2023-04-23T12:54:23;21.20;1.00
336;DHT22;156;48.738;9.228;2023-04-23T12:56:51;21.40;1.00
336;DHT22;156;48.738;9.228;2023-04-23T12:59:18;21.30;1.00
336;DHT22;156;48.738;9.228;2023-04-23T13:01:45;21.10;1.00
336;DHT22;156;48.738;9.228;2023-04-23T13:04:12;21.10;1.00
336;DHT22;156;48.738;9.228;2023-04-23T13:06:39;21.20;1.00
336;DHT22;156;48.738;9.228;2023-04-23T13:09:06;21.30;1.00
336;DHT22;156;48.738;9.228;2023-04-23T13:11:36;21.70;1.00
336;DHT22;156;48.738;9.228;2023-04-23T13:14:03;22.10;1.00
336;DHT22;156;48.738;9.228;2023-04-23T13:16:30;22.50;1.00
336;DHT22;156;48.738;9.228;2023-04-23T13:18:58;22.30;1.00
336;DHT22;156;48.738;9.228;2023-04-23T13:21:25;22.50;1.00
336;DHT22;156;48.738;9.228;2023-04-23T13:23:52;22.60;1.00
336;DHT22;156;48.738;9.228;2023-04-23T13:26:19;22.50;1.00
336;DHT22;156;48.738;9.228;2023-04-23T13:28:51;23.00;1.00
336;DHT22;156;48.738;9.228;2023-04-23T13:31:18;23.50;1.00
336;DHT22;156;48.738;9.228;2023-04-23T13:33:45;23.70;1.00
336;DHT22;156;48.738;9.228;2023-04-23T13:36:12;24.30;1.00
336;DHT22;156;48.738;9.228;2023-04-23T13:38:39;24.10;1.00
336;DHT22;156;48.738;9.228;2023-04-23T13:41:06;23.30;1.00
336;DHT22;156;48.738;9.228;2023-04-23T13:43:33;22.90;1.00
336;DHT22;156;48.738;9.228;2023-04-23T13:46:01;22.90;1.00
336;DHT22;156;48.738;9.228;2023-04-23T13:48:28;22.30;1.00
336;DHT22;156;48.738;9.228;2023-04-23T13:50:57;21.00;1.00
336;DHT22;156;48.738;9.228;2023-04-23T13:53:26;20.50;1.00
336;DHT22;156;48.738;9.228;2023-04-23T13:55:53;20.00;1.00
336;DHT22;156;48.738;9.228;2023-04-23T13:58:20;20.50;1.00
336;DHT22;156;48.738;9.228;2023-04-23T14:00:50;20.20;1.00
336;DHT22;156;48.738;9.228;2023-04-23T14:03:19;21.00;1.00
336;DHT22;156;48.738;9.228;2023-04-23T14:05:46;21.80;1.00
336;DHT22;156;48.738;9.228;2023-04-23T14:08:13;22.10;1.00
336;DHT22;156;48.738;9.228;2023-04-23T14:10:42;21.80;1.00
336;DHT22;156;48.738;9.228;2023-04-23T14:13:09;21.70;1.00
336;DHT22;156;48.738;9.228;2023-04-23T14:15:36;22.20;1.00
336;DHT22;156;48.738;9.228;2023-04-23T14:18:03;22.20;1.00
336;DHT22;156;48.738;9.228;2023-04-23T14:20:32;22.10;1.00
336;DHT22;156;48.738;9.228;2023-04-23T14:23:02;22.00;1.00
336;DHT22;156;48.738;9.228;2023-04-23T14:25:33;21.90;1.00
336;DHT22;156;48.738;9.228;2023-04-23T14:28:03;22.40;1.00
336;DHT22;156;48.738;9.228;2023-04-23T14:30:35;22.70;1.00
336;DHT22;156;48.738;9.228;2023-04-23T14:33:03;22.90;1.00
336;DHT22;156;48.738;9.228;2023-04-23T14:35:31;22.90;1.00
336;DHT22;156;48.738;9.228;2023-04-23T14:37:58;23.10;1.00
336;DHT22;156;48.738;9.228;2023-04-23T14:40:25;22.80;1.00
336;DHT22;156;48.738;9.228;2023-04-23T14:42:54;21.90;1.00
336;DHT22;156;48.738;9.228;2023-04-23T14:45:21;21.60;1.00
336;DHT22;156;48.738;9.228;2023-04-23T14:47:48;21.10;1.00
336;DHT22;156;48.738;9.228;2023-04-23T14:50:15;20.50;1.00
336;DHT22;156;48.738;9.228;2023-04-23T14:52:46;20.20;1.00
336;DHT22;156;48.738;9.228;2023-04-23T14:55:13;20.20;1.00
336;DHT22;156;48.738;9.228;2023-04-23T14:57:41;20.10;1.00
336;DHT22;156;48.738;9.228;2023-04-23T15:00:11;20.10;1.00
336;DHT22;156;48.738;9.228;2023-04-23T15:02:39;20.10;1.00
336;DHT22;156;48.738;9.228;2023-04-23T15:05:07;20.40;1.00
336;DHT22;156;48.738;9.228;2023-04-23T15:07:35;20.10;1.00
336;DHT22;156;48.738;9.228;2023-04-23T15:10:07;20.30;1.00
336;DHT22;156;48.738;9.228;2023-04-23T15:12:41;20.40;1.00
336;DHT22;156;48.738;9.228;2023-04-23T15:15:14;20.50;1.00
336;DHT22;156;48.738;9.228;2023-04-23T15:17:42;20.40;1.00
336;DHT22;156;48.738;9.228;2023-04-23T15:20:09;20.00;1.00
336;DHT22;156;48.738;9.228;2023-04-23T15:22:36;19.80;1.00
336;DHT22;156;48.738;9.228;2023-04-23T15:25:06;19.50;1.00
336;DHT22;156;48.738;9.228;2023-04-23T15:27:34;19.40;1.00
336;DHT22;156;48.738;9.228;2023-04-23T15:30:03;19.00;1.00
336;DHT22;156;48.738;9.228;2023-04-23T15:32:30;19.00;1.00
336;DHT22;156;48.738;9.228;2023-04-23T15:34:57;18.80;1.00
336;DHT22;156;48.738;9.228;2023-04-23T15:37:25;18.70;1.00
336;DHT22;156;48.738;9.228;2023-04-23T15:39:55;18.30;1.00
336;DHT22;156;48.738;9.228;2023-04-23T15:42:23;18.20;1.00
336;DHT22;156;48.738;9.228;2023-04-23T15:44:52;16.30;1.00
336;DHT22;156;48.738;9.228;2023-04-23T15:47:22;15.80;1.00
336;DHT22;156;48.738;9.228;2023-04-23T15:49:49;15.70;1.00
336;DHT22;156;48.738;9.228;2023-04-23T15:52:18;15.70;1.00
336;DHT22;156;48.738;9.228;2023-04-23T15:54:45;15.30;1.00
336;DHT22;156;48.738;9.228;2023-04-23T15:57:12;15.20;1.00
336;DHT22;156;48.738;9.228;2023-04-23T15:59:41;15.40;1.00
336;DHT22;156;48.738;9.228;2023-04-23T16:02:08;15.70;1.00
336;DHT22;156;48.738;9.228;2023-04-23T16:04:35;16.20;1.00
336;DHT22;156;48.738;9.228;2023-04-23T16:07:02;16.20;1.00
336;DHT22;156;48.738;9.228;2023-04-23T16:09:29;16.40;1.00
336;DHT22;156;48.738;9.228;2023-04-23T16:11:57;16.60;1.00
336;DHT22;156;48.738;9.228;2023-04-23T16:14:24;16.60;1.00
336;DHT22;156;48.738;9.228;2023-04-23T16:16:52;16.60;1.00
336;DHT22;156;48.738;9.228;2023-04-23T16:19:20;16.70;1.00
336;DHT22;156;48.738;9.228;2023-04-23T16:21:47;16.50;1.00
336;DHT22;156;48.738;9.228;2023-04-23T16:24:15;16.50;1.00
336;DHT22;156;48.738;9.228;2023-04-23T16:26:43;16.50;1.00
336;DHT22;156;48.738;9.228;2023-04-23T16:29:11;16.60;1.00
336;DHT22;156;48.738;9.228;2023-04-23T16:31:41;16.40;1.00
336;DHT22;156;48.738;9.228;2023-04-23T16:34:11;16.10;1.00
336;DHT22;156;48.738;9.228;2023-04-23T16:36:38;15.40;1.00
336;DHT22;156;48.738;9.228;2023-04-23T16:39:05;14.70;1.00
336;DHT22;156;48.738;9.228;2023-04-23T16:41:32;14.50;1.00
336;DHT22;156;48.738;9.228;2023-04-23T16:43:59;13.90;1.00
336;DHT22;156;48.738;9.228;2023-04-23T16:46:26;13.50;1.00
336;DHT22;156;48.738;9.228;2023-04-23T16:48:55;13.30;1.00
336;DHT22;156;48.738;9.228;2023-04-23T16:51:24;13.30;1.00
336;DHT22;156;48.738;9.228;2023-04-23T16:53:52;13.40;1.00